Delaplaine, Arkansas
Current Conditions -  °F | °C
As of 8:15 PM on Saturday 22 Nov 2014 (Local Time) from K4M9 Reporting Station
Few Clouds Few Clouds  
Wind Chill: 10°   Ceiling: Unl
Heat Index: 10°   Visibility: 10mi
Dew Point:   Wind: 8mph
Humidity: 82%   Direction: 150°SSE
Pressure: 30"   Gusts: NA
Location:  36.23°N, 90.73°W
Report Text: K4M9 230215Z AUTO 15007KT 10SM FEW044 10/07 A3000 RMK AO2
Loading
Personal Weather Stations






























Interactive Weather Map New forecast layout! Learn more

10-Day Weather Forecast

Advertisements
Track Severe Weather on mobile